createdAt,value
2023-04-01T00:01:15.997Z,42.40
2023-04-01T00:03:44.878Z,42.50
2023-04-01T00:06:15.642Z,42.50
2023-04-01T00:08:43.797Z,42.50
2023-04-01T00:11:11.932Z,42.50
2023-04-01T00:13:39.714Z,42.60
2023-04-01T00:16:19.852Z,42.50
2023-04-01T00:18:51.191Z,42.50
2023-04-01T00:21:21.619Z,42.50
2023-04-01T00:23:50.860Z,42.50
2023-04-01T00:26:22.086Z,42.40
2023-04-01T00:28:50.735Z,42.50
2023-04-01T00:31:18.965Z,42.60
2023-04-01T00:33:46.915Z,42.50
2023-04-01T00:36:17.305Z,42.50
2023-04-01T00:38:45.848Z,42.60
2023-04-01T00:41:16.785Z,42.50
2023-04-01T00:43:47.105Z,42.50
2023-04-01T00:46:15.592Z,42.50
2023-04-01T00:48:49.566Z,42.50
2023-04-01T00:51:21.440Z,42.50
2023-04-01T00:53:52.004Z,42.60
2023-04-01T00:56:35.457Z,42.50
2023-04-01T00:59:09.419Z,42.50
2023-04-01T01:01:37.821Z,42.60
2023-04-01T01:04:05.974Z,42.60
2023-04-01T01:07:08.534Z,42.60
2023-04-01T01:09:45.121Z,42.60
2023-04-01T01:12:33.047Z,42.60
2023-04-01T01:15:27.269Z,42.70
2023-04-01T01:17:57.864Z,42.70
2023-04-01T01:20:49.594Z,42.60
2023-04-01T01:23:44.528Z,42.60
2023-04-01T01:26:39.760Z,42.60
2023-04-01T01:29:25.650Z,42.70
2023-04-01T01:32:12.697Z,42.70
2023-04-01T01:34:56.782Z,42.70
2023-04-01T01:37:27.276Z,42.70
2023-04-01T01:40:01.204Z,42.70
2023-04-01T01:42:33.618Z,42.70
2023-04-01T01:45:03.752Z,42.60
2023-04-01T01:47:32.378Z,42.70
2023-04-01T01:50:02.341Z,42.70
2023-04-01T01:52:30.934Z,42.60
2023-04-01T01:54:59.643Z,42.70
2023-04-01T01:57:37.977Z,42.70
2023-04-01T02:00:15.648Z,42.60
2023-04-01T02:02:48.630Z,42.70
2023-04-01T02:05:20.671Z,42.70
2023-04-01T02:07:57.018Z,42.70
2023-04-01T02:10:28.207Z,42.70
2023-04-01T02:13:02.423Z,42.70
2023-04-01T02:15:34.646Z,42.70
2023-04-01T02:18:03.382Z,42.80
2023-04-01T02:20:31.678Z,42.80
2023-04-01T02:23:00.858Z,42.70
2023-04-01T02:25:34.924Z,42.70
2023-04-01T02:28:05.185Z,42.70
2023-04-01T02:30:37.015Z,42.70
2023-04-01T02:33:06.531Z,42.80
2023-04-01T02:35:38.026Z,42.80
2023-04-01T02:38:07.212Z,42.80
2023-04-01T02:40:50.891Z,42.80
2023-04-01T02:43:20.037Z,42.70
2023-04-01T02:45:47.808Z,42.80
2023-04-01T02:48:15.813Z,42.80
2023-04-01T02:50:43.499Z,42.80
2023-04-01T02:53:12.393Z,42.80
2023-04-01T02:55:40.424Z,42.90
2023-04-01T02:58:08.244Z,42.80
2023-04-01T03:00:36.219Z,42.80
2023-04-01T03:03:04.229Z,42.80
2023-04-01T03:10:01.464Z,42.80
2023-04-01T03:12:29.250Z,42.90
2023-04-01T03:14:57.165Z,42.90
2023-04-01T03:17:39.834Z,42.90
2023-04-01T03:20:11.396Z,42.90
2023-04-01T03:22:42.691Z,42.90
2023-04-01T03:25:11.640Z,42.90
2023-04-01T03:27:39.981Z,42.90
2023-04-01T03:30:10.734Z,42.80
2023-04-01T03:32:47.198Z,42.90
2023-04-01T03:35:15.015Z,42.90
2023-04-01T03:37:42.892Z,42.90
2023-04-01T03:40:11.896Z,42.90
2023-04-01T03:42:39.744Z,42.90
2023-04-01T03:45:07.872Z,42.90
2023-04-01T03:47:36.091Z,42.90
2023-04-01T03:50:04.098Z,42.90
2023-04-01T03:52:32.437Z,42.90
2023-04-01T03:55:00.418Z,43.00
2023-04-01T03:57:28.486Z,43.00
2023-04-01T04:00:00.980Z,43.00
2023-04-01T04:02:29.115Z,43.00
2023-04-01T04:04:57.087Z,43.00
2023-04-01T04:07:25.361Z,42.90
2023-04-01T04:10:07.279Z,43.00
2023-04-01T04:12:35.382Z,43.00
2023-04-01T04:15:03.231Z,43.00
2023-04-01T04:17:31.008Z,43.00
2023-04-01T04:19:58.881Z,43.00
2023-04-01T04:22:26.993Z,43.00
2023-04-01T04:24:55.562Z,43.00
2023-04-01T04:27:23.479Z,43.10
2023-04-01T04:30:07.636Z,43.00
2023-04-01T04:32:35.850Z,43.00
2023-04-01T04:35:04.622Z,43.10
2023-04-01T04:37:32.413Z,43.00
2023-04-01T04:40:01.052Z,43.00
2023-04-01T04:42:29.429Z,43.10
2023-04-01T04:45:02.068Z,43.10
2023-04-01T04:47:30.201Z,43.10
2023-04-01T04:50:00.877Z,43.10
2023-04-01T04:52:28.662Z,43.10
2023-04-01T04:54:56.560Z,43.00
2023-04-01T04:57:24.365Z,43.00
2023-04-01T04:59:56.064Z,43.00
2023-04-01T05:02:42.336Z,43.00
2023-04-01T05:05:11.483Z,43.00
2023-04-01T05:07:39.333Z,43.20
2023-04-01T05:10:07.828Z,43.20
2023-04-01T05:12:38.498Z,43.00
2023-04-01T05:15:09.289Z,43.10
2023-04-01T05:17:37.529Z,43.20
2023-04-01T05:20:06.490Z,43.20
2023-04-01T05:22:34.232Z,43.00
2023-04-01T05:25:02.142Z,43.00
2023-04-01T05:27:30.963Z,43.10
2023-04-01T05:29:59.503Z,43.20
2023-04-01T05:32:47.656Z,43.20
2023-04-01T05:35:15.543Z,43.30
2023-04-01T05:37:43.484Z,43.30
2023-04-01T05:40:11.695Z,43.30
2023-04-01T05:42:39.965Z,43.20
2023-04-01T05:45:08.584Z,43.20
2023-04-01T05:48:02.763Z,43.30
2023-04-01T05:50:34.929Z,43.30
2023-04-01T05:53:03.854Z,43.30
2023-04-01T05:55:32.057Z,43.30
2023-04-01T05:58:00.106Z,43.40
2023-04-01T06:00:29.342Z,43.30
2023-04-01T06:03:02.612Z,43.30
2023-04-01T06:05:36.756Z,43.30
2023-04-01T06:08:20.324Z,43.40
2023-04-01T06:10:54.879Z,43.50
2023-04-01T06:13:28.462Z,43.40
2023-04-01T06:16:24.139Z,43.50
2023-04-01T06:19:22.450Z,43.50
2023-04-01T06:22:15.092Z,43.50
2023-04-01T06:24:46.041Z,43.60
2023-04-01T06:27:32.370Z,43.70
2023-04-01T06:30:20.468Z,43.60
2023-04-01T06:33:08.786Z,43.60
2023-04-01T06:36:35.364Z,43.60
2023-04-01T06:39:30.685Z,43.60
2023-04-01T06:42:07.342Z,43.60
2023-04-01T06:45:22.013Z,43.70
2023-04-01T06:48:53.947Z,43.70
2023-04-01T06:52:11.626Z,43.70
2023-04-01T06:55:15.754Z,43.70
2023-04-01T06:58:36.765Z,43.70
2023-04-01T07:01:09.360Z,43.70
2023-04-01T07:03:42.552Z,43.70
2023-04-01T07:06:21.830Z,43.80
2023-04-01T07:08:58.058Z,43.80
2023-04-01T07:11:31.905Z,43.70
2023-04-01T07:14:22.151Z,43.90
2023-04-01T07:17:01.268Z,43.80
2023-04-01T07:19:37.580Z,43.90
2023-04-01T07:22:34.640Z,43.90
2023-04-01T07:25:32.370Z,44.00
2023-04-01T07:28:38.752Z,43.90
2023-04-01T07:31:44.339Z,44.00
2023-04-01T07:34:28.499Z,44.10
2023-04-01T07:37:04.084Z,44.10
2023-04-01T07:40:03.251Z,44.20
2023-04-01T07:42:55.564Z,44.10
2023-04-01T07:45:39.446Z,44.10
2023-04-01T07:48:34.193Z,44.10
2023-04-01T07:51:40.026Z,44.20
2023-04-01T07:54:17.863Z,44.30
2023-04-01T07:56:50.295Z,44.20
2023-04-01T07:59:41.204Z,44.20
2023-04-01T08:02:45.579Z,44.30
2023-04-01T08:05:34.363Z,44.20
2023-04-01T08:08:33.009Z,44.20
2023-04-01T08:11:43.807Z,44.20
2023-04-01T08:15:01.689Z,44.50
2023-04-01T08:18:28.141Z,44.40
2023-04-01T08:21:24.924Z,44.30
2023-04-01T08:23:57.639Z,44.40
2023-04-01T08:26:37.344Z,44.50
2023-04-01T08:29:19.916Z,44.40
2023-04-01T08:32:16.331Z,44.30
2023-04-01T08:34:48.563Z,44.40
2023-04-01T08:37:34.027Z,44.40
2023-04-01T08:40:30.901Z,44.50
2023-04-01T08:43:20.703Z,44.40
2023-04-01T08:46:10.482Z,44.50
2023-04-01T08:49:03.565Z,44.50
2023-04-01T08:52:20.758Z,44.50
2023-04-01T08:55:16.400Z,44.40
2023-04-01T08:58:47.768Z,44.70
2023-04-01T09:01:52.374Z,44.60
2023-04-01T09:04:59.540Z,44.50
2023-04-01T09:08:06.062Z,44.60
2023-04-01T09:10:44.724Z,44.50
2023-04-01T09:13:49.030Z,44.60
2023-04-01T09:16:44.245Z,44.40
2023-04-01T09:19:49.861Z,44.50
2023-04-01T09:22:38.841Z,44.20
2023-04-01T09:25:21.464Z,44.10
2023-04-01T09:28:03.430Z,44.20
2023-04-01T09:31:02.762Z,44.40
2023-04-01T09:34:14.789Z,44.50
2023-04-01T09:38:14.187Z,44.30
2023-04-01T09:40:49.638Z,44.20
2023-04-01T09:43:35.510Z,44.20
2023-04-01T09:46:20.628Z,44.20
2023-04-01T09:49:06.749Z,44.40
2023-04-01T09:51:52.916Z,44.60
2023-04-01T09:55:01.388Z,44.50
2023-04-01T09:57:42.869Z,44.30
2023-04-01T10:00:53.735Z,44.20
2023-04-01T10:03:52.947Z,44.30
2023-04-01T10:06:46.025Z,44.30
2023-04-01T10:09:29.174Z,44.20
2023-04-01T10:12:22.068Z,44.20
2023-04-01T10:15:27.308Z,44.20
2023-04-01T10:18:01.334Z,44.10
2023-04-01T10:20:56.924Z,44.30
2023-04-01T10:23:36.344Z,44.40
2023-04-01T10:26:22.709Z,44.30
2023-04-01T10:29:18.962Z,44.20
2023-04-01T10:32:05.203Z,44.10
2023-04-01T10:34:52.041Z,44.00
2023-04-01T10:37:44.401Z,44.00
2023-04-01T10:40:36.952Z,44.10
2023-04-01T10:44:20.374Z,44.10
2023-04-01T10:47:13.263Z,44.40
2023-04-01T10:49:50.208Z,44.20
2023-04-01T10:52:58.592Z,44.20
2023-04-01T10:56:19.739Z,44.20
2023-04-01T11:00:02.786Z,44.20
2023-04-01T11:03:41.822Z,44.10
2023-04-01T11:06:58.603Z,44.20
2023-04-01T11:09:55.706Z,44.30
2023-04-01T11:13:02.905Z,44.40
2023-04-01T11:16:00.561Z,44.40
2023-04-01T11:18:45.869Z,44.40
2023-04-01T11:21:32.462Z,44.40
2023-04-01T11:24:36.141Z,44.40
2023-04-01T11:27:28.881Z,44.30
2023-04-01T11:30:08.532Z,44.30
2023-04-01T11:32:51.649Z,44.40
2023-04-01T11:35:38.082Z,44.40
2023-04-01T11:38:26.340Z,44.40
2023-04-01T11:41:31.604Z,44.30
2023-04-01T11:44:30.981Z,44.50
2023-04-01T11:47:25.897Z,44.50
2023-04-01T11:50:17.765Z,44.80
2023-04-01T11:53:26.659Z,45.10
2023-04-01T11:56:14.611Z,45.20
2023-04-01T11:58:57.660Z,45.00
2023-04-01T12:01:46.505Z,45.60
2023-04-01T12:04:36.406Z,45.70
2023-04-01T12:07:13.244Z,45.90
2023-04-01T12:10:18.261Z,46.20
2023-04-01T12:13:10.364Z,46.10
2023-04-01T12:15:44.221Z,46.20
2023-04-01T12:18:30.564Z,46.10
2023-04-01T12:21:44.982Z,46.30
2023-04-01T12:24:49.320Z,46.30
2023-04-01T12:27:38.702Z,46.40
2023-04-01T12:30:21.701Z,46.40
2023-04-01T12:33:15.445Z,46.50
2023-04-01T12:36:02.310Z,46.40
2023-04-01T12:38:45.402Z,46.20
2023-04-01T12:41:39.421Z,46.30
2023-04-01T12:44:28.302Z,46.40
2023-04-01T12:47:05.524Z,46.20
2023-04-01T12:49:56.811Z,46.30
2023-04-01T12:53:07.642Z,46.80
2023-04-01T12:55:54.562Z,46.60
2023-04-01T12:58:43.511Z,46.30
2023-04-01T13:01:33.076Z,46.30
2023-04-01T13:04:25.343Z,46.40
2023-04-01T13:07:18.303Z,46.20
2023-04-01T13:10:04.239Z,46.10
2023-04-01T13:12:49.883Z,46.60
2023-04-01T13:15:32.802Z,46.70
2023-04-01T13:18:22.249Z,46.80
2023-04-01T13:21:03.982Z,46.70
2023-04-01T13:23:47.801Z,46.80
2023-04-01T13:26:28.021Z,46.90
2023-04-01T13:29:24.758Z,46.50
2023-04-01T13:32:12.270Z,46.60
2023-04-01T13:34:53.703Z,47.10
2023-04-01T13:37:27.365Z,46.90
2023-04-01T13:39:58.340Z,46.80
2023-04-01T13:42:36.489Z,46.80
2023-04-01T13:45:15.477Z,46.70
2023-04-01T13:48:02.353Z,46.70
2023-04-01T13:50:45.382Z,46.70
2023-04-01T13:53:22.757Z,46.70
2023-04-01T13:55:50.900Z,46.70
2023-04-01T13:59:07.079Z,46.80
2023-04-01T14:02:12.199Z,46.60
2023-04-01T14:05:10.664Z,46.70
2023-04-01T14:07:52.383Z,46.70
2023-04-01T14:10:33.721Z,46.80
2023-04-01T14:13:28.882Z,46.80
2023-04-01T14:16:15.645Z,46.90
2023-04-01T14:19:26.562Z,46.70
2023-04-01T14:22:11.599Z,46.90
2023-04-01T14:24:58.247Z,47.10
2023-04-01T14:27:48.488Z,46.80
2023-04-01T14:30:19.116Z,46.90
2023-04-01T14:33:14.038Z,47.10
2023-04-01T14:36:20.148Z,47.10
2023-04-01T14:38:48.038Z,47.10
2023-04-01T14:41:29.084Z,47.10
2023-04-01T14:44:06.662Z,47.10
2023-04-01T14:47:23.230Z,47.10
2023-04-01T14:49:55.261Z,47.10
2023-04-01T14:52:30.943Z,47.20
2023-04-01T14:55:00.781Z,47.10
2023-04-01T14:57:33.266Z,46.90
2023-04-01T15:00:10.161Z,46.80
2023-04-01T15:03:00.223Z,46.70
2023-04-01T15:05:43.621Z,46.90
2023-04-01T15:08:23.048Z,46.90
2023-04-01T15:10:57.938Z,46.70
2023-04-01T15:13:31.542Z,46.80
2023-04-01T15:16:14.869Z,46.80
2023-04-01T15:18:54.480Z,46.60
2023-04-01T15:21:59.350Z,46.60
2023-04-01T15:24:36.225Z,46.60
2023-04-01T15:27:19.445Z,46.50
2023-04-01T15:30:05.841Z,46.60
2023-04-01T15:33:04.008Z,46.50
2023-04-01T15:35:44.089Z,46.50
2023-04-01T15:38:26.176Z,46.50
2023-04-01T15:41:18.123Z,46.50
2023-04-01T15:43:53.301Z,46.50
2023-04-01T15:46:53.906Z,46.50
2023-04-01T15:49:45.687Z,46.50
2023-04-01T15:52:23.969Z,46.40
2023-04-01T15:55:15.044Z,46.40
2023-04-01T15:58:07.065Z,46.40
2023-04-01T16:00:59.941Z,46.40
2023-04-01T16:03:42.620Z,46.40
2023-04-01T16:06:29.410Z,46.40
2023-04-01T16:09:04.800Z,46.30
2023-04-01T16:12:07.805Z,46.40
2023-04-01T16:15:26.037Z,46.30
2023-04-01T16:18:30.608Z,46.30
2023-04-01T16:21:13.244Z,46.30
2023-04-01T16:23:44.201Z,46.30
2023-04-01T16:26:24.139Z,46.40
2023-04-01T16:28:55.785Z,46.40
2023-04-01T16:31:49.018Z,46.30
2023-04-01T16:34:37.518Z,46.40
2023-04-01T16:37:14.161Z,46.40
2023-04-01T16:40:02.519Z,46.60
2023-04-01T16:42:30.679Z,46.50
2023-04-01T16:45:26.196Z,46.60
2023-04-01T16:48:17.437Z,46.50
2023-04-01T16:51:01.275Z,46.50
2023-04-01T16:53:49.481Z,46.50
2023-04-01T16:56:28.602Z,46.60
2023-04-01T16:59:02.649Z,46.60
2023-04-01T17:01:41.975Z,46.40
2023-04-01T17:04:23.087Z,46.50
2023-04-01T17:07:13.604Z,46.40
2023-04-01T17:09:47.278Z,46.50
2023-04-01T17:12:57.082Z,46.60
2023-04-01T17:15:47.860Z,46.50
2023-04-01T17:18:54.016Z,46.60
2023-04-01T17:22:02.425Z,46.60
2023-04-01T17:24:48.572Z,46.40
2023-04-01T17:27:19.293Z,46.40
2023-04-01T17:29:59.124Z,46.60
2023-04-01T17:32:58.792Z,46.50
2023-04-01T17:36:00.224Z,46.50
2023-04-01T17:38:40.009Z,46.50
2023-04-01T17:41:26.222Z,46.50
2023-04-01T17:44:03.342Z,46.40
2023-04-01T17:46:46.385Z,46.30
2023-04-01T17:49:41.099Z,46.40
2023-04-01T17:52:38.819Z,46.40
2023-04-01T17:55:34.565Z,46.40
2023-04-01T17:58:30.161Z,46.50
2023-04-01T18:01:13.859Z,46.40
2023-04-01T18:04:12.464Z,46.40
2023-04-01T18:06:43.285Z,46.40
2023-04-01T18:09:21.582Z,46.30
2023-04-01T18:12:01.626Z,46.40
2023-04-01T18:14:42.987Z,46.20
2023-04-01T18:17:27.050Z,46.30
2023-04-01T18:19:54.947Z,46.30
2023-04-01T18:22:22.810Z,46.30
2023-04-01T18:25:06.247Z,46.30
2023-04-01T18:27:51.666Z,46.30
2023-04-01T18:30:32.939Z,46.30
2023-04-01T18:33:46.035Z,46.30
2023-04-01T18:36:22.998Z,46.30
2023-04-01T18:39:03.475Z,46.30
2023-04-01T18:41:57.647Z,46.20
2023-04-01T18:44:50.188Z,46.20
2023-04-01T18:47:44.636Z,46.30
2023-04-01T18:50:29.729Z,46.20
2023-04-01T18:53:25.584Z,46.20
2023-04-01T18:56:01.656Z,46.20
2023-04-01T18:58:43.811Z,46.20
2023-04-01T19:01:30.341Z,46.30
2023-04-01T19:04:13.796Z,46.20
2023-04-01T19:06:48.744Z,46.20
2023-04-01T19:09:45.765Z,46.20
2023-04-01T19:12:33.164Z,46.20
2023-04-01T19:15:34.977Z,46.10
2023-04-01T19:18:37.230Z,46.20
2023-04-01T19:21:34.358Z,46.20
2023-04-01T19:24:17.556Z,46.20
2023-04-01T19:27:08.227Z,46.20
2023-04-01T19:29:39.067Z,46.10
2023-04-01T19:32:44.165Z,46.10
2023-04-01T19:35:33.590Z,46.10
2023-04-01T19:38:13.459Z,46.10
2023-04-01T19:40:53.272Z,46.20
2023-04-01T19:43:38.091Z,46.10
2023-04-01T19:46:20.729Z,46.10
2023-04-01T19:49:25.468Z,46.20
2023-04-01T19:51:56.209Z,46.10
2023-04-01T19:54:34.723Z,46.10
2023-04-01T19:57:21.676Z,46.10
2023-04-01T19:59:53.053Z,46.10
2023-04-01T20:02:31.983Z,46.00
2023-04-01T20:05:32.817Z,46.10
2023-04-01T20:08:25.381Z,46.10
2023-04-01T20:11:19.370Z,46.10
2023-04-01T20:14:10.970Z,46.00
2023-04-01T20:16:53.734Z,46.00
2023-04-01T20:20:00.276Z,46.00
2023-04-01T20:22:46.090Z,46.00
2023-04-01T20:25:25.044Z,46.10
2023-04-01T20:28:14.490Z,46.00
2023-04-01T20:31:00.796Z,46.10
2023-04-01T20:33:53.343Z,46.00
2023-04-01T20:36:34.479Z,46.00
2023-04-01T20:39:32.345Z,46.10
2023-04-01T20:42:30.821Z,46.00
2023-04-01T20:45:17.100Z,46.00
2023-04-01T20:47:50.798Z,46.00
2023-04-01T20:50:21.591Z,46.00
2023-04-01T20:53:03.587Z,45.90
2023-04-01T20:55:59.255Z,45.90
2023-04-01T20:58:51.426Z,46.00
2023-04-01T21:02:09.170Z,46.00
2023-04-01T21:04:43.231Z,45.90
2023-04-01T21:07:43.793Z,45.90
2023-04-01T21:10:20.357Z,45.90
2023-04-01T21:13:02.050Z,45.90
2023-04-01T21:15:44.133Z,45.90
2023-04-01T21:18:37.725Z,45.90
2023-04-01T21:21:38.698Z,45.90
2023-04-01T21:24:12.359Z,45.90
2023-04-01T21:26:52.450Z,45.90
2023-04-01T21:29:47.596Z,45.90
2023-04-01T21:32:21.527Z,46.00
2023-04-01T21:35:10.162Z,45.90
2023-04-01T21:37:51.214Z,45.90
2023-04-01T21:40:34.261Z,45.90
2023-04-01T21:43:04.987Z,45.90
2023-04-01T21:46:06.876Z,46.00
2023-04-01T21:48:45.420Z,45.90
2023-04-01T21:51:31.104Z,45.90
2023-04-01T21:54:12.940Z,45.80
2023-04-01T21:57:02.525Z,46.00
2023-04-01T21:59:45.226Z,45.90
2023-04-01T22:02:37.876Z,45.90
2023-04-01T22:05:19.482Z,45.90
2023-04-01T22:08:02.436Z,45.90
2023-04-01T22:11:10.724Z,45.80
2023-04-01T22:13:50.587Z,45.90
2023-04-01T22:16:30.563Z,45.80
2023-04-01T22:19:29.747Z,45.90
2023-04-01T22:22:32.316Z,45.90
2023-04-01T22:25:27.357Z,45.90
2023-04-01T22:28:17.188Z,45.90
2023-04-01T22:30:58.479Z,45.90
2023-04-01T22:33:34.195Z,45.80
2023-04-01T22:36:08.501Z,45.80
2023-04-01T22:39:07.154Z,45.80
2023-04-01T22:41:57.995Z,45.80
2023-04-01T22:45:01.386Z,45.80
2023-04-01T22:47:40.320Z,45.90
2023-04-01T22:50:25.533Z,45.80
2023-04-01T22:53:19.637Z,45.80
2023-04-01T22:55:53.626Z,45.80
2023-04-01T22:58:37.862Z,45.70
2023-04-01T23:01:18.009Z,45.80
2023-04-01T23:03:49.967Z,45.90
2023-04-01T23:06:27.415Z,45.70
2023-04-01T23:09:17.721Z,45.70
2023-04-01T23:11:47.787Z,45.80
2023-04-01T23:14:21.765Z,45.70
2023-04-01T23:16:56.991Z,45.80
2023-04-01T23:19:29.175Z,45.80
2023-04-01T23:22:18.275Z,45.70
2023-04-01T23:25:07.409Z,45.70
2023-04-01T23:27:42.097Z,45.80
2023-04-01T23:30:40.987Z,45.70
2023-04-01T23:33:18.924Z,45.70
2023-04-01T23:36:38.345Z,45.80
2023-04-01T23:39:15.179Z,45.80
2023-04-01T23:41:42.991Z,45.70
2023-04-01T23:44:14.592Z,45.80
2023-04-01T23:46:47.598Z,45.70
2023-04-01T23:49:53.872Z,45.70
2023-04-01T23:52:28.942Z,45.70
2023-04-01T23:55:01.452Z,45.70
2023-04-01T23:57:32.817Z,45.70
